createdAt,value
2023-03-15T00:01:20.026Z,101334.09
2023-03-15T00:03:48.011Z,101327.94
2023-03-15T00:06:15.378Z,101328.91
2023-03-15T00:08:41.997Z,101328.34
2023-03-15T00:11:08.521Z,101334.22
2023-03-15T00:13:35.097Z,101336.28
2023-03-15T00:16:05.425Z,101339.06
2023-03-15T00:18:32.405Z,101346.88
2023-03-15T00:20:59.343Z,101350.63
2023-03-15T00:23:26.019Z,101354.94
2023-03-15T00:25:53.284Z,101354.47
2023-03-15T00:28:19.889Z,101363.97
2023-03-15T00:30:46.554Z,101362.28
2023-03-15T00:33:14.199Z,101364.94
2023-03-15T00:35:42.514Z,101377.47
2023-03-15T00:38:09.589Z,101368.34
2023-03-15T00:40:37.106Z,101370.97
2023-03-15T00:43:03.955Z,101374.59
2023-03-15T00:45:30.582Z,101372.78
2023-03-15T00:47:57.177Z,101364.25
2023-03-15T00:50:24.036Z,101376.41
2023-03-15T00:52:50.618Z,101367.25
2023-03-15T00:55:19.442Z,101369.03
2023-03-15T00:57:47.053Z,101388.06
2023-03-15T01:00:20.408Z,101379.41
2023-03-15T01:02:47.617Z,101387.22
2023-03-15T01:05:15.250Z,101381.22
2023-03-15T01:07:41.878Z,101383.75
2023-03-15T01:10:08.986Z,101389.03
2023-03-15T01:12:35.593Z,101399.75
2023-03-15T01:15:04.929Z,101403.97
2023-03-15T01:17:31.927Z,101406.97
2023-03-15T01:20:01.539Z,101410.47
2023-03-15T01:22:28.144Z,101407.34
2023-03-15T01:24:54.807Z,101409.63
2023-03-15T01:27:24.137Z,101403.97
2023-03-15T01:29:50.766Z,101422.75
2023-03-15T01:32:17.327Z,101424.56
2023-03-15T01:34:44.052Z,101422.97
2023-03-15T01:37:14.480Z,101427.47
2023-03-15T01:39:42.599Z,101429.13
2023-03-15T01:42:10.291Z,101436.38
2023-03-15T01:44:50.729Z,101440.81
2023-03-15T01:47:17.448Z,101448.75
2023-03-15T01:49:46.924Z,101445.50
2023-03-15T01:52:22.115Z,101442.75
2023-03-15T01:55:04.763Z,101449.13
2023-03-15T01:57:40.148Z,101444.66
2023-03-15T02:00:16.786Z,101456.09
2023-03-15T02:02:52.428Z,101462.13
2023-03-15T02:05:23.944Z,101452.72
2023-03-15T02:07:51.264Z,101452.09
2023-03-15T02:10:23.743Z,101451.25
2023-03-15T02:12:53.084Z,101461.63
2023-03-15T02:15:20.710Z,101463.81
2023-03-15T02:17:48.811Z,101473.28
2023-03-15T02:20:36.809Z,101469.91
2023-03-15T02:23:13.252Z,101473.78
2023-03-15T02:26:13.628Z,101469.22
2023-03-15T02:28:42.028Z,101474.75
2023-03-15T02:31:08.885Z,101479.06
2023-03-15T02:33:41.983Z,101487.00
2023-03-15T02:36:25.715Z,101487.13
2023-03-15T02:38:53.977Z,101487.25
2023-03-15T02:41:42.679Z,101490.63
2023-03-15T02:44:25.907Z,101487.34
2023-03-15T02:46:55.098Z,101490.97
2023-03-15T02:49:24.368Z,101499.75
2023-03-15T02:51:50.938Z,101510.13
2023-03-15T02:54:17.542Z,101511.06
2023-03-15T02:56:44.155Z,101515.53
2023-03-15T02:59:12.780Z,101525.28
2023-03-15T03:01:40.231Z,101521.03
2023-03-15T03:04:07.285Z,101528.13
2023-03-15T03:06:33.882Z,101538.72
2023-03-15T03:09:04.493Z,101527.03
2023-03-15T03:11:31.466Z,101544.97
2023-03-15T03:13:57.993Z,101546.78
2023-03-15T03:16:24.627Z,101554.72
2023-03-15T03:18:51.394Z,101558.34
2023-03-15T03:21:18.062Z,101564.63
2023-03-15T03:23:46.321Z,101560.38
2023-03-15T03:26:16.719Z,101575.06
2023-03-15T03:28:46.428Z,101578.69
2023-03-15T03:31:21.751Z,101572.66
2023-03-15T03:33:48.499Z,101580.72
2023-03-15T03:36:15.259Z,101588.66
2023-03-15T03:38:43.577Z,101583.47
2023-03-15T03:41:11.188Z,101595.66
2023-03-15T03:43:38.016Z,101601.91
2023-03-15T03:46:05.864Z,101604.03
2023-03-15T03:48:32.617Z,101601.50
2023-03-15T03:50:59.129Z,101614.63
2023-03-15T03:53:25.984Z,101616.22
2023-03-15T03:55:54.484Z,101619.91
2023-03-15T03:58:21.847Z,101631.25
2023-03-15T04:00:48.880Z,101620.03
2023-03-15T04:03:15.646Z,101638.56
2023-03-15T04:05:42.263Z,101635.06
2023-03-15T04:08:08.817Z,101635.06
2023-03-15T04:10:35.332Z,101637.78
2023-03-15T04:13:02.190Z,101637.94
2023-03-15T04:15:28.870Z,101642.22
2023-03-15T04:17:58.373Z,101622.31
2023-03-15T04:20:26.836Z,101653.81
2023-03-15T04:22:54.698Z,101647.16
2023-03-15T04:25:22.090Z,101659.09
2023-03-15T04:27:58.786Z,101663.88
2023-03-15T04:30:29.389Z,101673.41
2023-03-15T04:33:00.072Z,101684.84
2023-03-15T04:35:28.050Z,101679.13
2023-03-15T04:37:54.992Z,101677.66
2023-03-15T04:40:24.215Z,101692.25
2023-03-15T04:42:51.790Z,101697.84
2023-03-15T04:45:19.309Z,101699.78
2023-03-15T04:47:45.877Z,101707.84
2023-03-15T04:50:13.480Z,101712.88
2023-03-15T04:52:40.471Z,101717.47
2023-03-15T04:55:07.380Z,101708.16
2023-03-15T04:57:33.973Z,101723.81
2023-03-15T05:00:00.536Z,101715.16
2023-03-15T05:02:27.256Z,101713.44
2023-03-15T05:04:53.798Z,101720.53
2023-03-15T05:07:20.477Z,101721.69
2023-03-15T05:09:47.987Z,101733.78
2023-03-15T05:12:14.555Z,101734.09
2023-03-15T05:14:41.180Z,101760.03
2023-03-15T05:17:07.894Z,101757.50
2023-03-15T05:19:34.743Z,101745.53
2023-03-15T05:22:02.545Z,101755.03
2023-03-15T05:24:29.184Z,101762.13
2023-03-15T05:26:56.581Z,101761.09
2023-03-15T05:29:23.149Z,101763.09
2023-03-15T05:31:50.025Z,101761.41
2023-03-15T05:34:16.789Z,101762.97
2023-03-15T05:36:43.431Z,101769.97
2023-03-15T05:39:11.552Z,101770.06
2023-03-15T05:41:38.096Z,101779.91
2023-03-15T05:44:04.813Z,101774.88
2023-03-15T05:46:32.029Z,101774.22
2023-03-15T05:48:58.656Z,101783.41
2023-03-15T05:51:25.230Z,101782.16
2023-03-15T05:53:51.856Z,101789.78
2023-03-15T05:56:18.419Z,101793.50
2023-03-15T05:58:45.067Z,101799.53
2023-03-15T06:01:11.793Z,101801.31
2023-03-15T06:03:38.604Z,101814.66
2023-03-15T06:06:05.385Z,101818.34
2023-03-15T06:08:31.961Z,101822.78
2023-03-15T06:10:58.526Z,101822.78
2023-03-15T06:13:25.095Z,101816.84
2023-03-15T06:15:51.660Z,101832.22
2023-03-15T06:18:18.234Z,101826.38
2023-03-15T06:20:45.028Z,101840.16
2023-03-15T06:23:11.614Z,101842.72
2023-03-15T06:25:38.124Z,101847.88
2023-03-15T06:28:04.691Z,101846.81
2023-03-15T06:30:31.558Z,101848.50
2023-03-15T06:32:58.254Z,101862.28
2023-03-15T06:35:24.811Z,101861.53
2023-03-15T06:37:53.061Z,101863.97
2023-03-15T06:40:19.954Z,101865.59
2023-03-15T06:42:46.628Z,101856.16
2023-03-15T06:45:13.448Z,101860.50
2023-03-15T06:47:40.246Z,101874.34
2023-03-15T06:50:07.498Z,101865.69
2023-03-15T06:52:34.090Z,101878.38
2023-03-15T06:55:00.668Z,101876.69
2023-03-15T06:57:27.471Z,101875.53
2023-03-15T06:59:54.260Z,101886.56
2023-03-15T07:02:21.089Z,101889.63
2023-03-15T07:04:48.087Z,101898.84
2023-03-15T07:07:14.707Z,101902.66
2023-03-15T07:09:41.532Z,101891.97
2023-03-15T07:12:08.355Z,101896.59
2023-03-15T07:14:35.139Z,101891.94
2023-03-15T07:17:01.800Z,101915.66
2023-03-15T07:19:28.353Z,101910.88
2023-03-15T07:21:54.892Z,101912.47
2023-03-15T07:24:21.433Z,101914.78
2023-03-15T07:26:48.082Z,101926.63
2023-03-15T07:29:14.684Z,101921.13
2023-03-15T07:31:41.216Z,101919.09
2023-03-15T07:34:07.793Z,101924.06
2023-03-15T07:36:34.356Z,101937.00
2023-03-15T07:39:01.702Z,101936.03
2023-03-15T07:41:28.236Z,101935.19
2023-03-15T07:43:56.016Z,101936.88
2023-03-15T07:46:24.034Z,101939.19
2023-03-15T07:48:50.594Z,101940.88
2023-03-15T07:51:17.145Z,101948.63
2023-03-15T07:53:43.703Z,101951.16
2023-03-15T07:56:10.250Z,101949.34
2023-03-15T07:58:36.782Z,101957.00
2023-03-15T08:01:03.380Z,101966.19
2023-03-15T08:03:30.094Z,101968.72
2023-03-15T08:05:56.739Z,101964.09
2023-03-15T08:08:23.360Z,101977.00
2023-03-15T08:10:49.902Z,101972.53
2023-03-15T08:13:16.426Z,101977.63
2023-03-15T08:15:47.231Z,101978.25
2023-03-15T08:18:14.437Z,101977.09
2023-03-15T08:20:41.132Z,101979.50
2023-03-15T08:23:09.161Z,101989.78
2023-03-15T08:25:41.110Z,101982.44
2023-03-15T08:28:07.941Z,101990.03
2023-03-15T08:30:34.520Z,101991.19
2023-03-15T08:33:01.188Z,102006.66
2023-03-15T08:35:27.843Z,101990.72
2023-03-15T08:37:55.521Z,102000.28
2023-03-15T08:40:25.007Z,102000.78
2023-03-15T08:42:53.309Z,102005.63
2023-03-15T08:45:20.821Z,102008.91
2023-03-15T08:47:47.438Z,102014.09
2023-03-15T08:50:15.697Z,102006.88
2023-03-15T08:52:43.208Z,102023.19
2023-03-15T08:55:14.326Z,102029.22
2023-03-15T08:57:41.671Z,102028.63
2023-03-15T09:00:09.542Z,102011.41
2023-03-15T09:02:37.120Z,102021.56
2023-03-15T09:05:07.056Z,102019.50
2023-03-15T09:07:34.211Z,102020.13
2023-03-15T09:10:02.903Z,102017.25
2023-03-15T09:12:30.705Z,102008.81
2023-03-15T09:14:57.348Z,102004.75
2023-03-15T09:17:23.887Z,102005.94
2023-03-15T09:19:50.465Z,102003.91
2023-03-15T09:22:29.015Z,102005.72
2023-03-15T09:25:01.560Z,102012.75
2023-03-15T09:27:32.442Z,102010.47
2023-03-15T09:29:59.119Z,102009.72
2023-03-15T09:32:25.768Z,102008.41
2023-03-15T09:34:52.364Z,102002.56
2023-03-15T09:37:20.727Z,102009.13
2023-03-15T09:39:47.759Z,102010.69
2023-03-15T09:42:25.405Z,102010.09
2023-03-15T09:45:02.829Z,102013.50
2023-03-15T09:47:46.827Z,102020.75
2023-03-15T09:50:21.576Z,102010.22
2023-03-15T09:53:12.039Z,102017.72
2023-03-15T09:55:39.612Z,102019.28
2023-03-15T09:58:18.265Z,102027.38
2023-03-15T10:00:59.993Z,102025.41
2023-03-15T10:03:42.849Z,102028.34
2023-03-15T10:06:27.494Z,102031.69
2023-03-15T10:08:58.290Z,102029.28
2023-03-15T10:11:43.345Z,102041.00
2023-03-15T10:14:28.001Z,102034.22
2023-03-15T10:16:54.981Z,102030.66
2023-03-15T10:19:45.970Z,102036.56
2023-03-15T10:22:36.938Z,102040.44
2023-03-15T10:25:23.627Z,102043.41
2023-03-15T10:27:55.980Z,102048.13
2023-03-15T10:30:31.475Z,102040.00
2023-03-15T10:33:12.950Z,102048.47
2023-03-15T10:35:39.516Z,102050.50
2023-03-15T10:38:17.335Z,102051.47
2023-03-15T10:40:55.886Z,102064.84
2023-03-15T10:43:25.259Z,102072.97
2023-03-15T10:46:06.715Z,102061.59
2023-03-15T10:48:36.052Z,102070.53
2023-03-15T10:51:20.919Z,102068.22
2023-03-15T10:54:00.233Z,102072.66
2023-03-15T10:56:31.183Z,102085.72
2023-03-15T10:59:11.944Z,102078.84
2023-03-15T11:01:40.201Z,102089.56
2023-03-15T11:04:13.256Z,102085.94
2023-03-15T11:06:46.414Z,102096.78
2023-03-15T11:09:51.070Z,102094.38
2023-03-15T11:12:24.316Z,102117.06
2023-03-15T11:14:56.470Z,102102.22
2023-03-15T11:17:26.845Z,102105.72
2023-03-15T11:19:57.674Z,102114.53
2023-03-15T11:22:24.763Z,102106.06
2023-03-15T11:24:52.757Z,102099.91
2023-03-15T11:27:22.363Z,102112.00
2023-03-15T11:29:56.716Z,102101.63
2023-03-15T11:32:26.731Z,102112.00
2023-03-15T11:35:08.515Z,102112.00
2023-03-15T11:37:42.832Z,102112.84
2023-03-15T11:40:38.096Z,102117.31
2023-03-15T11:43:25.935Z,102106.56
2023-03-15T11:46:10.858Z,102111.53
2023-03-15T11:48:51.242Z,102101.56
2023-03-15T11:51:17.986Z,102104.22
2023-03-15T11:53:48.486Z,102107.97
2023-03-15T11:56:28.057Z,102108.59
2023-03-15T11:59:25.508Z,102116.94
2023-03-15T12:01:57.853Z,102115.66
2023-03-15T12:04:24.402Z,102118.94
2023-03-15T12:06:54.268Z,102108.53
2023-03-15T12:09:40.902Z,102117.06
2023-03-15T12:12:26.069Z,102117.16
2023-03-15T12:15:06.840Z,102118.88
2023-03-15T12:17:43.191Z,102126.06
2023-03-15T12:20:12.630Z,102132.22
2023-03-15T12:22:50.019Z,102119.81
2023-03-15T12:25:54.147Z,102121.38
2023-03-15T12:29:04.094Z,102113.28
2023-03-15T12:31:44.817Z,102115.09
2023-03-15T12:34:23.701Z,102115.63
2023-03-15T12:36:53.084Z,102107.53
2023-03-15T12:39:36.762Z,102108.28
2023-03-15T12:42:05.063Z,102115.16
2023-03-15T12:44:31.836Z,102111.53
2023-03-15T12:47:10.275Z,102103.44
2023-03-15T12:49:38.411Z,102103.44
2023-03-15T12:52:10.765Z,102101.41
2023-03-15T12:54:41.347Z,102110.22
2023-03-15T12:57:11.419Z,102104.16
2023-03-15T13:00:07.910Z,102115.44
2023-03-15T13:02:43.698Z,102106.50
2023-03-15T13:05:10.610Z,102102.97
2023-03-15T13:07:54.284Z,102095.97
2023-03-15T13:10:37.208Z,102100.22
2023-03-15T13:13:20.104Z,102095.63
2023-03-15T13:15:59.130Z,102093.69
2023-03-15T13:18:29.553Z,102094.41
2023-03-15T13:21:18.327Z,102103.13
2023-03-15T13:23:51.944Z,102102.16
2023-03-15T13:26:36.672Z,102093.44
2023-03-15T13:29:21.142Z,102096.00
2023-03-15T13:32:00.988Z,102082.94
2023-03-15T13:34:31.261Z,102102.16
2023-03-15T13:37:02.149Z,102094.19
2023-03-15T13:39:33.937Z,102103.00
2023-03-15T13:42:18.914Z,102100.56
2023-03-15T13:44:45.686Z,102089.09
2023-03-15T13:47:24.325Z,102092.38
2023-03-15T13:49:53.756Z,102093.69
2023-03-15T13:52:20.574Z,102101.31
2023-03-15T13:54:47.317Z,102094.28
2023-03-15T13:57:19.595Z,102102.16
2023-03-15T13:59:54.792Z,102096.84
2023-03-15T14:02:35.116Z,102103.84
2023-03-15T14:05:06.629Z,102092.38
2023-03-15T14:07:44.367Z,102097.56
2023-03-15T14:10:17.035Z,102100.22
2023-03-15T14:12:45.109Z,102096.72
2023-03-15T14:15:19.722Z,102103.63
2023-03-15T14:18:17.404Z,102100.13
2023-03-15T14:20:53.590Z,102102.78
2023-03-15T14:23:24.952Z,102105.44
2023-03-15T14:26:06.475Z,102106.16
2023-03-15T14:28:33.657Z,102108.94
2023-03-15T14:31:02.409Z,102107.88
2023-03-15T14:33:31.868Z,102104.25
2023-03-15T14:36:04.356Z,102104.09
2023-03-15T14:38:36.889Z,102100.59
2023-03-15T14:41:19.474Z,102102.28
2023-03-15T14:43:46.284Z,102094.44
2023-03-15T14:46:13.158Z,102095.16
2023-03-15T14:48:40.767Z,102098.66
2023-03-15T14:51:14.820Z,102089.72
2023-03-15T14:53:42.119Z,102091.53
2023-03-15T14:56:11.707Z,102070.16
2023-03-15T14:58:38.424Z,102086.97
2023-03-15T15:01:05.364Z,102088.66
2023-03-15T15:03:41.705Z,102089.63
2023-03-15T15:06:12.319Z,102094.94
2023-03-15T15:08:41.826Z,102095.66
2023-03-15T15:11:09.213Z,102089.63
2023-03-15T15:13:36.584Z,102086.00
2023-03-15T15:16:03.586Z,102088.53
2023-03-15T15:18:32.664Z,102076.94
2023-03-15T15:21:02.934Z,102075.13
2023-03-15T15:23:32.781Z,102075.13
2023-03-15T15:26:03.404Z,102067.16
2023-03-15T15:28:36.847Z,102061.94
2023-03-15T15:31:06.359Z,102063.53
2023-03-15T15:33:34.040Z,102070.53
2023-03-15T15:36:01.095Z,102062.69
2023-03-15T15:38:33.178Z,102061.59
2023-03-15T15:40:59.860Z,102056.41
2023-03-15T15:43:26.426Z,102056.41
2023-03-15T15:45:53.021Z,102055.31
2023-03-15T15:48:19.651Z,102052.66
2023-03-15T15:50:46.253Z,102046.50
2023-03-15T15:53:17.127Z,102042.84
2023-03-15T15:55:45.786Z,102046.34
2023-03-15T15:58:14.006Z,102048.03
2023-03-15T16:00:40.792Z,102056.13
2023-03-15T16:03:16.862Z,102049.84
2023-03-15T16:05:43.775Z,102048.03
2023-03-15T16:08:23.994Z,102044.53
2023-03-15T16:10:50.856Z,102044.28
2023-03-15T16:13:18.076Z,102049.63
2023-03-15T16:15:44.791Z,102046.00
2023-03-15T16:18:12.678Z,102059.28
2023-03-15T16:20:42.888Z,102051.31
2023-03-15T16:23:19.466Z,102046.97
2023-03-15T16:25:49.974Z,102053.97
2023-03-15T16:28:16.597Z,102067.25
2023-03-15T16:30:46.367Z,102061.34
2023-03-15T16:33:19.661Z,102058.56
2023-03-15T16:35:50.089Z,102059.41
2023-03-15T16:38:24.312Z,102055.91
2023-03-15T16:40:53.301Z,102060.25
2023-03-15T16:43:20.479Z,102050.59
2023-03-15T16:45:47.409Z,102067.38
2023-03-15T16:48:14.519Z,102070.03
2023-03-15T16:50:42.454Z,102062.19
2023-03-15T16:53:12.119Z,102071.75
2023-03-15T16:55:39.692Z,102073.66
2023-03-15T16:58:19.708Z,102074.50
2023-03-15T17:00:48.125Z,102077.28
2023-03-15T17:03:17.060Z,102080.78
2023-03-15T17:05:46.542Z,102072.94
2023-03-15T17:08:19.053Z,102078.25
2023-03-15T17:10:46.587Z,102081.06
2023-03-15T17:13:20.959Z,102086.22
2023-03-15T17:15:47.883Z,102083.72
2023-03-15T17:18:19.935Z,102077.56
2023-03-15T17:20:48.632Z,102071.38
2023-03-15T17:23:16.309Z,102082.13
2023-03-15T17:25:43.242Z,102075.00
2023-03-15T17:28:09.852Z,102078.63
2023-03-15T17:30:38.029Z,102077.06
2023-03-15T17:33:05.308Z,102076.09
2023-03-15T17:35:35.500Z,102073.53
2023-03-15T17:38:04.636Z,102083.34
2023-03-15T17:40:33.910Z,102081.63
2023-03-15T17:43:02.307Z,102073.66
2023-03-15T17:45:31.843Z,102081.63
2023-03-15T17:47:59.646Z,102087.06
2023-03-15T17:50:28.850Z,102085.50
2023-03-15T17:53:01.902Z,102091.53
2023-03-15T17:55:30.784Z,102093.47
2023-03-15T17:57:57.636Z,102091.91
2023-03-15T18:00:25.170Z,102093.47
2023-03-15T18:02:56.072Z,102096.13
2023-03-15T18:05:28.265Z,102089.25
2023-03-15T18:07:59.147Z,102092.88
2023-03-15T18:10:33.885Z,102095.41
2023-03-15T18:13:00.927Z,102096.50
2023-03-15T18:15:28.285Z,102102.56
2023-03-15T18:17:55.167Z,102100.84
2023-03-15T18:20:24.135Z,102100.13
2023-03-15T18:22:52.050Z,102108.94
2023-03-15T18:25:23.160Z,102108.22
2023-03-15T18:27:51.214Z,102110.13
2023-03-15T18:30:21.173Z,102106.75
2023-03-15T18:32:48.660Z,102105.66
2023-03-15T18:35:25.738Z,102108.56
2023-03-15T18:37:54.161Z,102108.56
2023-03-15T18:40:21.337Z,102113.03
2023-03-15T18:42:48.338Z,102111.22
2023-03-15T18:45:21.578Z,102107.81
2023-03-15T18:47:48.770Z,102109.63
2023-03-15T18:50:16.391Z,102104.31
2023-03-15T18:52:44.243Z,102102.66
2023-03-15T18:55:13.096Z,102100.22
2023-03-15T18:57:43.074Z,102095.75
2023-03-15T19:00:14.357Z,102096.72
2023-03-15T19:02:43.137Z,102101.78
2023-03-15T19:05:11.826Z,102089.59
2023-03-15T19:07:39.701Z,102095.75
2023-03-15T19:10:10.245Z,102094.06
2023-03-15T19:12:37.518Z,102094.06
2023-03-15T19:15:05.725Z,102091.38
2023-03-15T19:17:32.823Z,102087.03
2023-03-15T19:19:59.369Z,102092.34
2023-03-15T19:22:29.207Z,102092.56
2023-03-15T19:24:55.913Z,102102.13
2023-03-15T19:27:22.634Z,102087.38
2023-03-15T19:29:49.203Z,102095.34
2023-03-15T19:32:15.786Z,102092.56
2023-03-15T19:34:42.631Z,102085.78
2023-03-15T19:37:09.615Z,102090.88
2023-03-15T19:39:36.252Z,102090.88
2023-03-15T19:42:04.588Z,102086.53
2023-03-15T19:44:36.596Z,102083.03
2023-03-15T19:47:03.235Z,102076.84
2023-03-15T19:49:29.839Z,102080.47
2023-03-15T19:51:56.540Z,102084.94
2023-03-15T19:54:23.158Z,102080.47
2023-03-15T19:56:49.763Z,102077.97
2023-03-15T19:59:16.348Z,102082.28
2023-03-15T20:01:42.940Z,102087.75
2023-03-15T20:04:09.598Z,102082.53
2023-03-15T20:06:36.239Z,102082.53
2023-03-15T20:09:02.955Z,102076.59
2023-03-15T20:11:30.142Z,102077.34
2023-03-15T20:13:56.757Z,102080.00
2023-03-15T20:16:23.633Z,102078.31
2023-03-15T20:18:55.745Z,102085.31
2023-03-15T20:21:23.486Z,102077.47
2023-03-15T20:23:50.845Z,102083.72
2023-03-15T20:26:18.452Z,102081.94
2023-03-15T20:28:47.086Z,102082.88
2023-03-15T20:31:16.879Z,102080.22
2023-03-15T20:33:45.583Z,102086.50
2023-03-15T20:36:12.223Z,102080.56
2023-03-15T20:38:39.057Z,102076.94
2023-03-15T20:41:06.907Z,102086.63
2023-03-15T20:43:34.202Z,102075.97
2023-03-15T20:46:03.127Z,102072.75
2023-03-15T20:48:32.274Z,102075.25
2023-03-15T20:50:59.027Z,102077.19
2023-03-15T20:53:25.910Z,102077.19
2023-03-15T20:55:52.487Z,102079.72
2023-03-15T20:58:19.486Z,102084.19
2023-03-15T21:00:46.508Z,102068.47
2023-03-15T21:03:15.667Z,102078.34
2023-03-15T21:05:44.870Z,102080.81
2023-03-15T21:08:13.357Z,102079.09
2023-03-15T21:10:40.443Z,102074.00
2023-03-15T21:13:10.103Z,102062.41
2023-03-15T21:15:46.493Z,102066.03
2023-03-15T21:18:15.039Z,102058.16
2023-03-15T21:20:42.800Z,102054.66
2023-03-15T21:23:10.115Z,102049.59
2023-03-15T21:25:37.993Z,102053.81
2023-03-15T21:28:05.174Z,102055.63
2023-03-15T21:30:33.260Z,102045.13
2023-03-15T21:33:00.413Z,102048.84
2023-03-15T21:35:27.743Z,102057.56
2023-03-15T21:37:54.732Z,102035.56
2023-03-15T21:40:22.231Z,102050.53
2023-03-15T21:42:49.805Z,102049.00
2023-03-15T21:45:16.969Z,102037.50
2023-03-15T21:47:45.989Z,102033.06
2023-03-15T21:50:13.363Z,102040.41
2023-03-15T21:52:40.335Z,102031.34
2023-03-15T21:55:08.333Z,102037.63
2023-03-15T21:57:34.866Z,102035.81
2023-03-15T22:00:01.505Z,102035.81
2023-03-15T22:02:28.087Z,102030.72
2023-03-15T22:04:54.715Z,102035.09
2023-03-15T22:07:21.295Z,102022.66
2023-03-15T22:09:47.899Z,102025.31
2023-03-15T22:12:15.597Z,102019.38
2023-03-15T22:14:42.309Z,102016.72
2023-03-15T22:17:08.956Z,102013.22
2023-03-15T22:19:35.694Z,102019.38
2023-03-15T22:22:02.486Z,102005.25
2023-03-15T22:24:29.075Z,102010.56
2023-03-15T22:26:56.221Z,102007.16
2023-03-15T22:29:22.810Z,102010.03
2023-03-15T22:31:49.351Z,101997.97
2023-03-15T22:34:15.887Z,102005.56
2023-03-15T22:36:42.935Z,101997.88
2023-03-15T22:39:10.263Z,102002.22
2023-03-15T22:41:37.142Z,101999.06
2023-03-15T22:44:04.376Z,102001.50
2023-03-15T22:46:34.839Z,102006.28
2023-03-15T22:49:01.907Z,102008.09
2023-03-15T22:51:28.473Z,102009.16
2023-03-15T22:53:54.990Z,102002.78
2023-03-15T22:56:21.839Z,102008.31
2023-03-15T22:58:48.769Z,101999.66
2023-03-15T23:01:15.563Z,101992.88
2023-03-15T23:03:42.183Z,102002.31
2023-03-15T23:06:08.807Z,102001.78
2023-03-15T23:08:35.341Z,101999.88
2023-03-15T23:11:01.937Z,101999.13
2023-03-15T23:13:28.496Z,101999.13
2023-03-15T23:15:55.129Z,102001.06
2023-03-15T23:18:22.096Z,101994.03
2023-03-15T23:20:48.694Z,101984.50
2023-03-15T23:23:15.658Z,101987.16
2023-03-15T23:25:43.116Z,101976.63
2023-03-15T23:28:09.708Z,101977.63
2023-03-15T23:30:36.549Z,101981.13
2023-03-15T23:33:03.832Z,101988.25
2023-03-15T23:35:31.847Z,101986.56
2023-03-15T23:37:58.567Z,101982.19
2023-03-15T23:40:25.866Z,101976.16
2023-03-15T23:42:58.795Z,101978.81
2023-03-15T23:45:27.698Z,101981.47
2023-03-15T23:47:54.250Z,101982.66
2023-03-15T23:50:25.894Z,101983.38
2023-03-15T23:52:54.666Z,101986.16
2023-03-15T23:55:23.537Z,101972.84
2023-03-15T23:57:50.312Z,101981.06
